createdAt,value
2023-08-22T00:00:33.674Z,9.60
2023-08-22T00:03:00.399Z,10.30
2023-08-22T00:05:27.144Z,9.18
2023-08-22T00:07:54.751Z,9.85
2023-08-22T00:10:21.451Z,10.30
2023-08-22T00:12:48.401Z,9.90
2023-08-22T00:15:15.046Z,9.68
2023-08-22T00:17:44.295Z,9.32
2023-08-22T00:20:13.311Z,9.70
2023-08-22T00:22:39.934Z,9.63
2023-08-22T00:25:08.222Z,9.40
2023-08-22T00:27:35.742Z,8.98
2023-08-22T00:30:03.120Z,9.32
2023-08-22T00:32:30.681Z,10.15
2023-08-22T00:34:57.799Z,9.80
2023-08-22T00:37:24.648Z,9.02
2023-08-22T00:39:51.576Z,9.02
2023-08-22T00:42:19.222Z,9.38
2023-08-22T00:44:47.578Z,10.25
2023-08-22T00:47:15.168Z,9.60
2023-08-22T00:49:42.316Z,9.45
2023-08-22T00:52:10.066Z,9.38
2023-08-22T00:54:36.705Z,9.63
2023-08-22T00:57:04.472Z,9.27
2023-08-22T00:59:31.733Z,9.57
2023-08-22T01:01:58.861Z,9.88
2023-08-22T01:04:25.524Z,9.93
2023-08-22T01:06:59.465Z,10.13
2023-08-22T01:09:34.829Z,10.30
2023-08-22T01:12:28.549Z,10.70
2023-08-22T01:15:15.713Z,10.32
2023-08-22T01:17:43.996Z,10.77
2023-08-22T01:20:14.079Z,10.50
2023-08-22T01:22:44.479Z,10.13
2023-08-22T01:25:11.427Z,10.50
2023-08-22T01:27:45.473Z,10.20
2023-08-22T01:30:19.829Z,10.45
2023-08-22T01:32:50.435Z,9.77
2023-08-22T01:35:23.821Z,10.00
2023-08-22T01:37:55.086Z,9.50
2023-08-22T01:40:24.752Z,10.40
2023-08-22T01:42:51.871Z,10.25
2023-08-22T01:45:18.782Z,10.05
2023-08-22T01:47:45.433Z,10.13
2023-08-22T01:50:12.368Z,9.47
2023-08-22T01:52:39.263Z,9.75
2023-08-22T01:55:06.721Z,10.45
2023-08-22T01:57:33.566Z,9.93
2023-08-22T02:00:00.343Z,9.88
2023-08-22T02:02:27.060Z,10.23
2023-08-22T02:04:53.766Z,10.88
2023-08-22T02:07:20.460Z,10.60
2023-08-22T02:09:47.174Z,9.98
2023-08-22T02:12:13.843Z,11.23
2023-08-22T02:14:40.412Z,10.77
2023-08-22T02:17:08.126Z,10.80
2023-08-22T02:19:34.726Z,11.40
2023-08-22T02:22:02.945Z,10.90
2023-08-22T02:24:30.783Z,10.30
2023-08-22T02:26:57.499Z,10.67
2023-08-22T02:29:24.147Z,10.93
2023-08-22T02:31:50.849Z,11.38
2023-08-22T02:34:17.628Z,10.55
2023-08-22T02:36:44.302Z,11.23
2023-08-22T02:39:10.893Z,10.90
2023-08-22T02:41:37.516Z,10.68
2023-08-22T02:44:04.790Z,10.43
2023-08-22T02:46:31.951Z,10.25
2023-08-22T02:48:58.931Z,9.68
2023-08-22T02:51:25.620Z,10.30
2023-08-22T02:53:52.224Z,10.02
2023-08-22T02:56:18.848Z,10.45
2023-08-22T02:58:47.689Z,10.48
2023-08-22T03:01:14.311Z,10.50
2023-08-22T03:03:41.000Z,10.03
2023-08-22T03:06:07.821Z,10.55
2023-08-22T03:08:34.420Z,10.95
2023-08-22T03:11:02.214Z,10.65
2023-08-22T03:13:31.791Z,11.07
2023-08-22T03:15:59.465Z,10.80
2023-08-22T03:18:27.180Z,10.25
2023-08-22T03:20:55.889Z,10.60
2023-08-22T03:23:22.465Z,10.30
2023-08-22T03:25:56.961Z,10.13
2023-08-22T03:28:23.630Z,10.37
2023-08-22T03:30:55.635Z,9.82
2023-08-22T03:33:25.961Z,10.43
2023-08-22T03:35:55.028Z,10.32
2023-08-22T03:38:22.054Z,9.57
2023-08-22T03:40:52.069Z,9.47
2023-08-22T03:43:21.523Z,10.23
2023-08-22T03:45:48.799Z,10.32
2023-08-22T03:48:16.749Z,10.40
2023-08-22T03:50:44.035Z,10.70
2023-08-22T03:53:11.976Z,10.17
2023-08-22T03:55:38.870Z,10.70
2023-08-22T03:58:06.233Z,10.55
2023-08-22T04:00:33.020Z,10.30
2023-08-22T04:03:00.532Z,10.43
2023-08-22T04:05:27.486Z,11.00
2023-08-22T04:07:54.299Z,9.90
2023-08-22T04:10:21.247Z,11.50
2023-08-22T04:12:47.907Z,10.18
2023-08-22T04:15:15.961Z,10.80
2023-08-22T04:17:49.839Z,11.00
2023-08-22T04:20:18.390Z,10.82
2023-08-22T04:22:45.053Z,10.48
2023-08-22T04:25:11.763Z,11.07
2023-08-22T04:27:40.429Z,10.52
2023-08-22T04:30:08.418Z,10.37
2023-08-22T04:32:35.694Z,9.90
2023-08-22T04:35:02.298Z,11.57
2023-08-22T04:37:28.927Z,11.95
2023-08-22T04:39:55.627Z,10.65
2023-08-22T04:42:22.305Z,11.23
2023-08-22T04:44:48.977Z,11.90
2023-08-22T04:47:15.589Z,11.07
2023-08-22T04:49:42.329Z,11.13
2023-08-22T04:52:09.210Z,10.65
2023-08-22T04:54:36.012Z,10.47
2023-08-22T04:57:02.600Z,10.73
2023-08-22T04:59:29.272Z,10.73
2023-08-22T05:01:55.946Z,10.60
2023-08-22T05:04:22.872Z,10.40
2023-08-22T05:06:49.457Z,10.40
2023-08-22T05:09:16.601Z,10.75
2023-08-22T05:11:44.434Z,10.65
2023-08-22T05:14:12.323Z,10.18
2023-08-22T05:16:40.213Z,10.25
2023-08-22T05:19:07.248Z,10.60
2023-08-22T05:21:34.104Z,9.93
2023-08-22T05:24:00.803Z,10.10
2023-08-22T05:26:29.029Z,10.02
2023-08-22T05:28:55.681Z,10.20
2023-08-22T05:31:25.872Z,10.10
2023-08-22T05:33:52.766Z,10.40
2023-08-22T05:36:19.521Z,10.57
2023-08-22T05:38:48.374Z,10.88
2023-08-22T05:41:15.819Z,10.05
2023-08-22T05:43:42.544Z,11.00
2023-08-22T05:46:09.577Z,10.65
2023-08-22T05:48:36.285Z,12.02
2023-08-22T05:51:03.896Z,10.70
2023-08-22T05:53:30.849Z,11.32
2023-08-22T05:55:58.008Z,10.93
2023-08-22T05:58:24.582Z,10.80
2023-08-22T06:00:51.289Z,11.75
2023-08-22T06:03:19.370Z,11.07
2023-08-22T06:05:48.907Z,10.88
2023-08-22T06:08:15.528Z,11.33
2023-08-22T06:10:44.826Z,11.63
2023-08-22T06:13:11.884Z,11.25
2023-08-22T06:15:38.542Z,11.38
2023-08-22T06:18:05.453Z,10.98
2023-08-22T06:20:32.086Z,10.57
2023-08-22T06:22:58.727Z,10.43
2023-08-22T06:25:27.873Z,11.27
2023-08-22T06:27:55.529Z,10.57
2023-08-22T06:30:22.256Z,10.55
2023-08-22T06:32:49.148Z,9.90
2023-08-22T06:35:15.960Z,9.98
2023-08-22T06:37:42.878Z,10.48
2023-08-22T06:40:10.234Z,9.93
2023-08-22T06:42:36.872Z,10.15
2023-08-22T06:45:04.045Z,10.07
2023-08-22T06:47:30.830Z,10.48
2023-08-22T06:49:57.458Z,10.40
2023-08-22T06:52:26.106Z,10.82
2023-08-22T06:54:52.754Z,10.25
2023-08-22T06:57:19.359Z,10.07
2023-08-22T06:59:46.040Z,9.82
2023-08-22T07:02:12.892Z,10.30
2023-08-22T07:04:39.636Z,10.20
2023-08-22T07:07:06.513Z,10.57
2023-08-22T07:09:33.181Z,10.43
2023-08-22T07:11:59.966Z,10.65
2023-08-22T07:14:27.441Z,10.13
2023-08-22T07:16:54.186Z,10.48
2023-08-22T07:19:31.607Z,10.77
2023-08-22T07:22:06.035Z,10.27
2023-08-22T07:24:32.704Z,10.13
2023-08-22T07:26:59.372Z,10.80
2023-08-22T07:29:26.008Z,10.60
2023-08-22T07:31:53.722Z,10.82
2023-08-22T07:34:20.495Z,10.33
2023-08-22T07:36:47.123Z,10.07
2023-08-22T07:39:13.782Z,10.65
2023-08-22T07:41:40.717Z,10.63
2023-08-22T07:44:07.374Z,11.23
2023-08-22T07:46:34.123Z,10.43
2023-08-22T07:49:00.741Z,9.90
2023-08-22T07:51:27.418Z,10.73
2023-08-22T07:53:54.597Z,10.50
2023-08-22T07:56:21.247Z,9.07
2023-08-22T07:58:49.020Z,9.63
2023-08-22T08:01:15.941Z,9.52
2023-08-22T08:03:42.839Z,10.48
2023-08-22T08:06:09.598Z,9.90
2023-08-22T08:08:36.470Z,9.73
2023-08-22T08:11:03.673Z,10.23
2023-08-22T08:13:30.312Z,10.60
2023-08-22T08:16:06.165Z,10.43
2023-08-22T08:18:33.750Z,9.95
2023-08-22T08:21:00.506Z,10.77
2023-08-22T08:23:28.354Z,10.03
2023-08-22T08:25:55.212Z,9.55
2023-08-22T08:28:21.869Z,10.27
2023-08-22T08:30:48.497Z,9.98
2023-08-22T08:33:15.187Z,10.10
2023-08-22T08:35:41.814Z,10.07
2023-08-22T08:38:08.919Z,9.57
2023-08-22T08:40:37.460Z,10.48
2023-08-22T08:43:07.064Z,9.70
2023-08-22T08:45:34.919Z,9.95
2023-08-22T08:48:03.432Z,9.50
2023-08-22T08:50:31.837Z,9.85
2023-08-22T08:52:59.408Z,9.45
2023-08-22T08:55:26.126Z,9.52
2023-08-22T08:57:53.387Z,9.38
2023-08-22T09:00:20.259Z,9.47
2023-08-22T09:02:47.000Z,8.32
2023-08-22T09:05:13.746Z,9.05
2023-08-22T09:07:40.918Z,8.70
2023-08-22T09:10:07.956Z,9.68
2023-08-22T09:12:36.566Z,8.50
2023-08-22T09:15:07.786Z,9.30
2023-08-22T09:17:34.482Z,9.35
2023-08-22T09:20:10.601Z,8.82
2023-08-22T09:22:37.260Z,9.05
2023-08-22T09:25:05.570Z,8.77
2023-08-22T09:27:32.250Z,8.57
2023-08-22T09:30:02.176Z,9.00
2023-08-22T09:32:28.923Z,8.40
2023-08-22T09:34:57.612Z,8.02
2023-08-22T09:37:32.004Z,8.23
2023-08-22T09:39:59.256Z,7.97
2023-08-22T09:42:30.674Z,8.30
2023-08-22T09:44:58.666Z,8.65
2023-08-22T09:47:40.909Z,8.80
2023-08-22T09:50:08.666Z,8.53
2023-08-22T09:52:38.393Z,8.57
2023-08-22T09:55:07.298Z,8.57
2023-08-22T09:57:34.847Z,8.57
2023-08-22T10:00:02.076Z,8.40
2023-08-22T10:02:30.460Z,7.50
2023-08-22T10:04:57.131Z,8.25
2023-08-22T10:07:24.983Z,8.10
2023-08-22T10:09:51.639Z,8.15
2023-08-22T10:12:18.999Z,8.45
2023-08-22T10:14:51.872Z,8.13
2023-08-22T10:17:18.558Z,8.82
2023-08-22T10:19:46.002Z,8.38
2023-08-22T10:22:14.670Z,8.35
2023-08-22T10:24:42.591Z,8.40
2023-08-22T10:27:13.636Z,8.53
2023-08-22T10:29:47.968Z,8.85
2023-08-22T10:32:14.525Z,8.63
2023-08-22T10:34:41.665Z,8.30
2023-08-22T10:37:19.601Z,8.23
2023-08-22T10:39:48.209Z,9.03
2023-08-22T10:42:14.965Z,9.30
2023-08-22T10:44:43.597Z,9.82
2023-08-22T10:47:25.688Z,9.00
2023-08-22T10:52:37.561Z,8.93
2023-08-22T10:55:04.520Z,9.15
2023-08-22T10:57:35.211Z,8.32
2023-08-22T11:00:14.421Z,7.80
2023-08-22T11:02:43.774Z,8.90
2023-08-22T11:05:12.560Z,8.47
2023-08-22T11:07:43.839Z,9.18
2023-08-22T11:10:15.523Z,9.02
2023-08-22T11:12:42.520Z,8.70
2023-08-22T11:15:09.558Z,8.95
2023-08-22T11:17:40.868Z,9.00
2023-08-22T11:20:26.771Z,8.00
2023-08-22T11:22:54.838Z,8.20
2023-08-22T11:25:27.077Z,7.57
2023-08-22T11:27:54.095Z,7.45
2023-08-22T11:30:21.614Z,7.13
2023-08-22T11:32:49.562Z,7.28
2023-08-22T11:35:17.276Z,7.95
2023-08-22T11:37:44.702Z,7.15
2023-08-22T11:40:16.798Z,7.10
2023-08-22T11:42:44.051Z,7.07
2023-08-22T11:45:15.092Z,7.50
2023-08-22T11:47:43.678Z,6.78
2023-08-22T11:50:24.326Z,7.25
2023-08-22T11:52:57.378Z,7.30
2023-08-22T11:55:28.736Z,6.20
2023-08-22T11:57:57.906Z,6.65
2023-08-22T12:00:27.312Z,6.80
2023-08-22T12:02:55.496Z,6.10
2023-08-22T12:05:42.522Z,6.22
2023-08-22T12:08:12.092Z,7.37
2023-08-22T12:10:39.507Z,6.82
2023-08-22T12:13:06.247Z,6.57
2023-08-22T12:15:33.513Z,6.38
2023-08-22T12:18:00.718Z,6.72
2023-08-22T12:20:27.448Z,5.33
2023-08-22T12:22:54.697Z,6.45
2023-08-22T12:25:21.420Z,6.70
2023-08-22T12:27:48.268Z,6.35
2023-08-22T12:30:15.005Z,6.30
2023-08-22T12:32:46.020Z,6.17
2023-08-22T12:35:12.986Z,6.43
2023-08-22T12:37:40.573Z,6.30
2023-08-22T12:40:13.555Z,6.88
2023-08-22T12:42:41.160Z,6.72
2023-08-22T12:45:12.041Z,5.77
2023-08-22T12:47:39.754Z,5.63
2023-08-22T12:50:07.695Z,6.20
2023-08-22T12:52:34.644Z,5.90
2023-08-22T12:55:02.880Z,5.80
2023-08-22T12:57:29.767Z,5.90
2023-08-22T12:59:56.455Z,5.57
2023-08-22T13:02:25.302Z,5.95
2023-08-22T13:04:52.124Z,5.45
2023-08-22T13:07:19.000Z,6.22
2023-08-22T13:09:45.652Z,5.00
2023-08-22T13:12:15.248Z,5.43
2023-08-22T13:14:41.898Z,5.57
2023-08-22T13:17:08.498Z,5.53
2023-08-22T13:19:35.104Z,5.65
2023-08-22T13:22:01.700Z,5.07
2023-08-22T13:24:28.618Z,5.00
2023-08-22T13:26:55.216Z,5.22
2023-08-22T13:29:21.865Z,5.07
2023-08-22T13:31:48.932Z,5.15
2023-08-22T13:34:15.608Z,5.83
2023-08-22T13:36:42.265Z,5.10
2023-08-22T13:39:08.864Z,5.32
2023-08-22T13:41:36.408Z,4.90
2023-08-22T13:44:04.141Z,5.15
2023-08-22T13:46:31.265Z,5.23
2023-08-22T13:48:57.957Z,4.68
2023-08-22T13:51:24.855Z,4.93
2023-08-22T13:53:51.525Z,4.80
2023-08-22T13:56:18.360Z,4.47
2023-08-22T13:58:44.957Z,5.20
2023-08-22T14:01:11.919Z,4.50
2023-08-22T14:03:38.711Z,5.38
2023-08-22T14:06:05.351Z,4.80
2023-08-22T14:08:31.984Z,4.40
2023-08-22T14:11:00.901Z,4.33
2023-08-22T14:13:28.382Z,4.32
2023-08-22T14:15:55.029Z,3.92
2023-08-22T14:18:21.749Z,3.55
2023-08-22T14:20:48.382Z,4.30
2023-08-22T14:23:15.050Z,3.77
2023-08-22T14:25:42.014Z,4.20
2023-08-22T14:28:08.723Z,3.90
2023-08-22T14:30:35.783Z,3.83
2023-08-22T14:33:04.241Z,3.83
2023-08-22T14:35:30.834Z,5.30
2023-08-22T14:37:57.475Z,4.10
2023-08-22T14:40:24.218Z,3.83
2023-08-22T14:42:51.256Z,4.03
2023-08-22T14:45:17.838Z,4.50
2023-08-22T14:47:44.867Z,4.10
2023-08-22T14:50:12.060Z,5.07
2023-08-22T14:52:38.685Z,4.38
2023-08-22T14:55:05.750Z,4.50
2023-08-22T14:57:32.419Z,4.20
2023-08-22T14:59:59.278Z,4.20
2023-08-22T15:02:25.896Z,5.10
2023-08-22T15:04:52.583Z,4.50
2023-08-22T15:07:19.558Z,5.35
2023-08-22T15:09:47.772Z,4.70
2023-08-22T15:12:16.303Z,4.27
2023-08-22T15:14:42.955Z,6.97
2023-08-22T15:17:09.812Z,4.40
2023-08-22T15:19:36.426Z,4.50
2023-08-22T15:22:03.645Z,4.22
2023-08-22T15:24:30.300Z,4.10
2023-08-22T15:26:56.861Z,4.38
2023-08-22T15:29:24.435Z,3.88
2023-08-22T15:31:51.138Z,3.97
2023-08-22T15:34:17.810Z,4.22
2023-08-22T15:36:44.628Z,4.20
2023-08-22T15:39:11.409Z,4.22
2023-08-22T15:41:38.204Z,4.15
2023-08-22T15:44:05.887Z,4.30
2023-08-22T15:46:32.780Z,4.00
2023-08-22T15:48:59.866Z,4.27
2023-08-22T15:51:26.682Z,4.07
2023-08-22T15:53:53.316Z,4.65
2023-08-22T15:56:20.130Z,4.00
2023-08-22T15:58:46.743Z,4.28
2023-08-22T16:01:13.441Z,4.03
2023-08-22T16:03:40.190Z,4.18
2023-08-22T16:06:06.996Z,4.30
2023-08-22T16:08:34.279Z,3.85
2023-08-22T16:11:01.496Z,3.55
2023-08-22T16:13:28.120Z,3.60
2023-08-22T16:15:54.727Z,3.60
2023-08-22T16:18:21.364Z,3.72
2023-08-22T16:20:53.179Z,3.42
2023-08-22T16:23:20.052Z,4.00
2023-08-22T16:25:46.774Z,3.37
2023-08-22T16:28:13.623Z,3.70
2023-08-22T16:30:40.771Z,3.40
2023-08-22T16:33:07.572Z,4.10
2023-08-22T16:35:34.445Z,3.80
2023-08-22T16:38:01.419Z,4.00
2023-08-22T16:40:28.392Z,3.92
2023-08-22T16:42:55.003Z,4.32
2023-08-22T16:45:21.932Z,3.90
2023-08-22T16:47:48.831Z,3.95
2023-08-22T16:50:15.801Z,3.97
2023-08-22T16:52:42.608Z,3.97
2023-08-22T16:55:09.738Z,3.85
2023-08-22T16:57:36.430Z,3.50
2023-08-22T17:00:05.084Z,3.70
2023-08-22T17:02:32.550Z,3.73
2023-08-22T17:04:59.656Z,3.80
2023-08-22T17:07:26.304Z,3.72
2023-08-22T17:09:52.952Z,4.28
2023-08-22T17:12:20.056Z,3.97
2023-08-22T17:14:46.805Z,3.53
2023-08-22T17:17:16.296Z,3.40
2023-08-22T17:19:42.917Z,4.05
2023-08-22T17:22:09.570Z,3.60
2023-08-22T17:24:36.339Z,4.00
2023-08-22T17:27:03.053Z,4.03
2023-08-22T17:29:30.005Z,4.10
2023-08-22T17:31:57.805Z,3.67
2023-08-22T17:34:24.583Z,4.63
2023-08-22T17:36:51.499Z,3.70
2023-08-22T17:39:19.432Z,4.13
2023-08-22T17:41:46.280Z,3.90
2023-08-22T17:44:12.999Z,4.35
2023-08-22T17:46:40.404Z,4.13
2023-08-22T17:49:07.075Z,3.50
2023-08-22T17:51:33.750Z,3.90
2023-08-22T17:54:00.666Z,3.42
2023-08-22T17:56:27.347Z,4.05
2023-08-22T17:58:53.991Z,4.00
2023-08-22T18:01:20.681Z,3.70
2023-08-22T18:03:47.433Z,4.17
2023-08-22T18:06:14.125Z,4.35
2023-08-22T18:08:42.342Z,4.40
2023-08-22T18:11:10.969Z,4.57
2023-08-22T18:13:38.341Z,4.68
2023-08-22T18:18:36.822Z,4.10
2023-08-22T18:21:05.012Z,3.85
2023-08-22T18:23:31.954Z,3.78
2023-08-22T18:26:03.718Z,3.78
2023-08-22T18:28:32.602Z,3.90
2023-08-22T18:31:10.376Z,4.03
2023-08-22T18:33:37.352Z,4.15
2023-08-22T18:36:04.058Z,3.47
2023-08-22T18:38:30.732Z,3.72
2023-08-22T18:40:58.653Z,4.20
2023-08-22T18:43:25.766Z,3.88
2023-08-22T18:45:52.447Z,3.42
2023-08-22T18:48:19.876Z,3.72
2023-08-22T18:50:49.075Z,23.77
2023-08-22T18:53:16.052Z,13.43
2023-08-22T18:55:42.692Z,32.33
2023-08-22T18:58:09.349Z,20.10
2023-08-22T19:00:36.198Z,25.58
2023-08-22T19:03:02.918Z,11.45
2023-08-22T19:05:29.953Z,5.10
2023-08-22T19:07:56.616Z,3.83
2023-08-22T19:10:24.366Z,4.30
2023-08-22T19:12:51.272Z,4.03
2023-08-22T19:15:18.243Z,3.83
2023-08-22T19:17:45.939Z,4.07
2023-08-22T19:20:13.349Z,4.18
2023-08-22T19:22:40.565Z,4.07
2023-08-22T19:25:07.748Z,4.07
2023-08-22T19:27:35.294Z,4.70
2023-08-22T19:30:03.116Z,3.97
2023-08-22T19:32:42.294Z,3.80
2023-08-22T19:35:19.014Z,3.95
2023-08-22T19:37:46.161Z,3.92
2023-08-22T19:40:13.398Z,4.25
2023-08-22T19:42:40.136Z,3.73
2023-08-22T19:45:07.290Z,4.00
2023-08-22T19:47:37.461Z,4.47
2023-08-22T19:50:05.834Z,4.20
2023-08-22T19:52:34.289Z,4.47
2023-08-22T19:55:00.933Z,4.07
2023-08-22T19:57:27.671Z,4.22
2023-08-22T19:59:57.538Z,3.95
2023-08-22T20:02:24.226Z,4.57
2023-08-22T20:04:51.235Z,4.30
2023-08-22T20:07:17.820Z,4.10
2023-08-22T20:09:44.450Z,4.28
2023-08-22T20:12:11.190Z,4.90
2023-08-22T20:14:39.319Z,4.68
2023-08-22T20:17:05.933Z,4.40
2023-08-22T20:19:33.193Z,4.40
2023-08-22T20:22:02.953Z,4.20
2023-08-22T20:24:29.969Z,4.38
2023-08-22T20:27:07.115Z,4.45
2023-08-22T20:29:34.096Z,4.68
2023-08-22T20:32:00.713Z,4.00
2023-08-22T20:34:28.307Z,3.92
2023-08-22T20:36:59.369Z,4.70
2023-08-22T20:39:29.574Z,4.35
2023-08-22T20:41:56.784Z,4.55
2023-08-22T20:44:23.523Z,4.20
2023-08-22T20:46:51.207Z,4.13
2023-08-22T20:49:18.377Z,4.75
2023-08-22T20:51:45.136Z,4.22
2023-08-22T20:54:11.758Z,4.43
2023-08-22T20:56:38.413Z,4.77
2023-08-22T20:59:05.024Z,4.18
2023-08-22T21:01:31.857Z,4.35
2023-08-22T21:03:59.587Z,4.47
2023-08-22T21:06:26.397Z,5.15
2023-08-22T21:08:53.649Z,3.80
2023-08-22T21:11:20.280Z,4.22
2023-08-22T21:13:46.948Z,4.60
2023-08-22T21:16:13.621Z,4.43
2023-08-22T21:18:40.377Z,4.50
2023-08-22T21:21:07.239Z,4.50
2023-08-22T21:23:33.898Z,4.10
2023-08-22T21:26:00.957Z,4.30
2023-08-22T21:28:27.627Z,4.45
2023-08-22T21:30:54.809Z,4.75
2023-08-22T21:33:21.553Z,4.23
2023-08-22T21:35:51.083Z,4.30
2023-08-22T21:38:17.646Z,4.50
2023-08-22T21:40:48.288Z,4.60
2023-08-22T21:43:15.611Z,4.53
2023-08-22T21:45:42.442Z,4.40
2023-08-22T21:48:09.542Z,5.10
2023-08-22T21:50:36.242Z,4.40
2023-08-22T21:53:02.859Z,4.30
2023-08-22T21:55:29.586Z,4.80
2023-08-22T21:57:56.441Z,3.80
2023-08-22T22:00:23.142Z,4.20
2023-08-22T22:02:50.083Z,4.63
2023-08-22T22:05:17.245Z,4.40
2023-08-22T22:07:44.220Z,4.68
2023-08-22T22:10:11.098Z,4.30
2023-08-22T22:12:38.159Z,4.28
2023-08-22T22:15:05.758Z,4.70
2023-08-22T22:17:32.457Z,4.65
2023-08-22T22:19:59.253Z,4.25
2023-08-22T22:22:26.010Z,4.70
2023-08-22T22:24:54.895Z,4.63
2023-08-22T22:27:21.572Z,4.47
2023-08-22T22:29:48.244Z,4.10
2023-08-22T22:32:17.412Z,4.53
2023-08-22T22:34:44.380Z,4.20
2023-08-22T22:37:11.200Z,4.53
2023-08-22T22:39:37.791Z,4.80
2023-08-22T22:42:04.628Z,4.82
2023-08-22T22:44:31.241Z,5.32
2023-08-22T22:46:57.896Z,4.20
2023-08-22T22:49:24.793Z,4.65
2023-08-22T22:51:51.463Z,4.90
2023-08-22T22:54:18.065Z,5.10
2023-08-22T22:56:44.681Z,4.80
2023-08-22T22:59:12.636Z,5.03
2023-08-22T23:01:39.287Z,4.97
2023-08-22T23:04:05.875Z,4.80
2023-08-22T23:06:32.465Z,4.75
2023-08-22T23:08:59.111Z,4.65
2023-08-22T23:11:31.700Z,4.47
2023-08-22T23:14:06.716Z,4.57
2023-08-22T23:16:33.419Z,5.75
2023-08-22T23:19:00.312Z,4.40
2023-08-22T23:21:26.940Z,4.78
2023-08-22T23:23:53.589Z,5.00
2023-08-22T23:26:20.255Z,4.30
2023-08-22T23:28:46.863Z,4.68
2023-08-22T23:31:13.552Z,4.28
2023-08-22T23:33:40.282Z,4.60
2023-08-22T23:36:07.173Z,4.00
2023-08-22T23:38:33.781Z,4.70
2023-08-22T23:41:00.438Z,4.78
2023-08-22T23:43:27.036Z,4.50
2023-08-22T23:45:53.676Z,4.78
2023-08-22T23:48:20.360Z,4.93
2023-08-22T23:50:47.144Z,4.40
2023-08-22T23:53:14.334Z,4.72
2023-08-22T23:55:40.990Z,5.15
2023-08-22T23:58:07.600Z,4.40
